createdAt,value
2022-12-15T00:00:47.403Z,1.34
2022-12-15T00:04:08.459Z,1.32
2022-12-15T00:07:28.954Z,1.08
2022-12-15T00:10:50.094Z,1.43
2022-12-15T00:14:10.728Z,1.10
2022-12-15T00:17:31.801Z,1.12
2022-12-15T00:20:53.554Z,1.34
2022-12-15T00:24:14.473Z,1.38
2022-12-15T00:27:35.197Z,1.19
2022-12-15T00:31:02.125Z,1.39
2022-12-15T00:34:23.489Z,1.56
2022-12-15T00:37:44.563Z,1.57
2022-12-15T00:40:46.687Z,1.59
2022-12-15T00:43:49.749Z,1.48
2022-12-15T00:46:54.870Z,1.41
2022-12-15T00:50:16.089Z,1.35
2022-12-15T00:53:40.799Z,1.37
2022-12-15T00:57:01.724Z,1.46
2022-12-15T01:00:24.211Z,1.58
2022-12-15T01:03:45.393Z,1.43
2022-12-15T01:07:06.320Z,1.34
2022-12-15T01:10:27.765Z,1.56
2022-12-15T01:13:50.015Z,1.74
2022-12-15T01:17:11.330Z,1.20
2022-12-15T01:20:15.061Z,1.17
2022-12-15T01:23:17.913Z,1.19
2022-12-15T01:26:20.345Z,1.29
2022-12-15T01:29:22.857Z,1.14
2022-12-15T01:32:25.096Z,1.33
2022-12-15T01:35:27.765Z,1.46
2022-12-15T01:38:30.138Z,1.60
2022-12-15T01:41:32.545Z,1.28
2022-12-15T01:44:36.790Z,1.59
2022-12-15T01:47:39.374Z,1.67
2022-12-15T01:50:55.887Z,1.69
2022-12-15T01:54:20.475Z,1.86
2022-12-15T01:57:27.114Z,1.86
2022-12-15T02:00:30.819Z,1.73
2022-12-15T02:03:34.088Z,1.46
2022-12-15T02:06:37.302Z,1.45
2022-12-15T02:09:40.788Z,1.54
2022-12-15T02:13:19.086Z,1.63
2022-12-15T02:16:27.931Z,1.85
2022-12-15T02:19:48.808Z,1.78
2022-12-15T02:23:16.138Z,1.57
2022-12-15T02:26:56.412Z,1.69
2022-12-15T02:30:19.616Z,1.75
2022-12-15T02:33:30.431Z,1.71
2022-12-15T02:36:37.003Z,1.66
2022-12-15T02:39:39.490Z,1.72
2022-12-15T02:42:52.418Z,1.64
2022-12-15T02:46:01.436Z,1.61
2022-12-15T02:49:23.089Z,1.60
2022-12-15T02:52:37.744Z,1.42
2022-12-15T02:55:52.172Z,1.68
2022-12-15T02:59:03.576Z,1.67
2022-12-15T03:02:07.716Z,1.68
2022-12-15T03:05:13.108Z,1.70
2022-12-15T03:08:15.235Z,1.58
2022-12-15T03:11:17.723Z,1.68
2022-12-15T03:14:20.635Z,1.55
2022-12-15T03:17:23.098Z,1.57
2022-12-15T03:20:25.188Z,1.71
2022-12-15T03:23:27.738Z,1.77
2022-12-15T03:26:30.065Z,1.84
2022-12-15T03:29:32.576Z,1.84
2022-12-15T03:32:34.669Z,1.82
2022-12-15T03:35:37.234Z,1.78
2022-12-15T03:38:39.400Z,1.39
2022-12-15T03:41:41.877Z,1.47
2022-12-15T03:44:44.009Z,1.11
2022-12-15T03:47:46.944Z,1.35
2022-12-15T03:50:50.088Z,1.31
2022-12-15T03:53:53.656Z,1.07
2022-12-15T03:56:55.749Z,1.07
2022-12-15T03:59:58.199Z,1.05
2022-12-15T04:03:00.649Z,0.83
2022-12-15T04:06:03.280Z,0.83
2022-12-15T04:09:05.547Z,0.81
2022-12-15T04:12:12.567Z,0.74
2022-12-15T04:15:15.437Z,0.71
2022-12-15T04:18:17.850Z,0.55
2022-12-15T04:21:20.011Z,0.52
2022-12-15T04:24:41.028Z,0.48
2022-12-15T04:28:02.022Z,0.57
2022-12-15T04:31:32.972Z,0.58
2022-12-15T04:34:54.289Z,0.65
2022-12-15T04:38:15.684Z,0.76
2022-12-15T04:41:39.041Z,0.85
2022-12-15T04:45:00.358Z,0.69
2022-12-15T04:48:21.869Z,0.55
2022-12-15T04:51:42.738Z,0.77
2022-12-15T04:55:03.159Z,0.83
2022-12-15T04:58:28.268Z,0.81
2022-12-15T05:01:48.950Z,1.14
2022-12-15T05:05:12.263Z,1.17
2022-12-15T05:08:33.020Z,0.91
2022-12-15T05:11:54.003Z,0.87
2022-12-15T05:15:14.975Z,0.72
2022-12-15T05:18:36.394Z,0.89
2022-12-15T05:21:57.137Z,0.71
2022-12-15T05:25:17.959Z,0.53
2022-12-15T05:28:38.911Z,0.81
2022-12-15T05:31:54.852Z,1.15
2022-12-15T05:34:57.060Z,0.74
2022-12-15T05:37:59.512Z,0.58
2022-12-15T05:41:01.737Z,0.81
2022-12-15T05:44:04.574Z,0.85
2022-12-15T05:47:08.200Z,0.88
2022-12-15T05:50:10.678Z,0.82
2022-12-15T05:53:12.821Z,0.78
2022-12-15T05:56:15.570Z,0.84
2022-12-15T05:59:19.201Z,0.86
2022-12-15T06:02:22.111Z,0.85
2022-12-15T06:05:24.654Z,0.90
2022-12-15T06:08:31.013Z,1.15
2022-12-15T06:11:33.527Z,1.44
2022-12-15T06:14:36.455Z,1.38
2022-12-15T06:17:39.580Z,1.15
2022-12-15T06:20:41.757Z,1.14
2022-12-15T06:23:45.115Z,1.44
2022-12-15T06:26:49.861Z,1.38
2022-12-15T06:29:53.101Z,1.23
2022-12-15T06:32:55.309Z,1.30
2022-12-15T06:36:01.275Z,1.07
2022-12-15T06:39:05.566Z,1.12
2022-12-15T06:42:08.067Z,1.64
2022-12-15T06:45:10.541Z,1.74
2022-12-15T06:48:12.985Z,1.78
2022-12-15T06:51:18.139Z,1.87
2022-12-15T06:54:20.576Z,1.98
2022-12-15T06:57:22.767Z,2.01
2022-12-15T07:00:25.229Z,2.01
2022-12-15T07:03:27.689Z,2.12
2022-12-15T07:06:36.773Z,2.18
2022-12-15T07:09:39.303Z,1.96
2022-12-15T07:12:41.738Z,1.89
2022-12-15T07:15:46.570Z,1.93
2022-12-15T07:18:49.347Z,2.00
2022-12-15T07:21:52.855Z,1.92
2022-12-15T07:24:55.713Z,1.98
2022-12-15T07:27:57.963Z,2.05
2022-12-15T07:31:06.843Z,2.16
2022-12-15T07:34:09.089Z,2.19
2022-12-15T07:37:11.606Z,2.36
2022-12-15T07:40:13.771Z,1.90
2022-12-15T07:43:16.590Z,1.96
2022-12-15T07:46:19.495Z,1.77
2022-12-15T07:49:22.113Z,2.16
2022-12-15T07:52:24.434Z,2.16
2022-12-15T07:55:50.004Z,2.27
2022-12-15T07:58:49.719Z,2.23
2022-12-15T08:01:53.666Z,2.29
2022-12-15T08:04:56.145Z,2.68
2022-12-15T08:07:58.742Z,2.56
2022-12-15T08:11:13.574Z,2.39
2022-12-15T08:14:17.870Z,2.16
2022-12-15T08:17:21.438Z,2.37
2022-12-15T08:20:24.935Z,2.36
2022-12-15T08:23:29.154Z,2.09
2022-12-15T08:26:31.848Z,2.40
2022-12-15T08:29:51.906Z,2.55
2022-12-15T08:32:54.660Z,2.28
2022-12-15T08:36:03.079Z,2.75
2022-12-15T08:39:05.410Z,3.08
2022-12-15T08:42:07.776Z,2.85
2022-12-15T08:45:11.333Z,3.08
2022-12-15T08:48:14.031Z,3.01
2022-12-15T08:51:17.349Z,2.65
2022-12-15T08:54:20.597Z,2.75
2022-12-15T08:57:22.767Z,2.81
2022-12-15T09:00:25.302Z,2.69
2022-12-15T09:03:27.795Z,2.66
2022-12-15T09:06:33.477Z,3.14
2022-12-15T09:09:35.650Z,3.10
2022-12-15T09:12:38.239Z,3.34
2022-12-15T09:16:08.483Z,3.43
2022-12-15T09:19:06.054Z,3.17
2022-12-15T09:22:08.687Z,2.98
2022-12-15T09:25:11.143Z,3.11
2022-12-15T09:28:14.592Z,3.74
2022-12-15T09:31:22.747Z,3.76
2022-12-15T09:34:25.050Z,3.66
2022-12-15T09:37:27.587Z,3.62
2022-12-15T09:40:30.084Z,3.60
2022-12-15T09:43:35.161Z,3.63
2022-12-15T09:46:50.619Z,3.61
2022-12-15T09:50:05.618Z,3.63
2022-12-15T09:53:45.550Z,3.75
2022-12-15T09:56:42.910Z,3.75
2022-12-15T09:59:55.741Z,3.88
2022-12-15T10:03:31.386Z,3.62
2022-12-15T10:06:50.794Z,3.41
2022-12-15T10:09:53.173Z,3.47
2022-12-15T10:13:02.451Z,3.55
2022-12-15T10:16:31.532Z,3.25
2022-12-15T10:19:51.957Z,3.44
2022-12-15T10:22:57.953Z,3.80
2022-12-15T10:26:20.787Z,3.92
2022-12-15T10:29:33.093Z,3.68
2022-12-15T10:33:03.492Z,3.50
2022-12-15T10:36:11.635Z,3.48
2022-12-15T10:39:16.216Z,3.60
2022-12-15T10:42:22.727Z,3.58
2022-12-15T10:45:35.713Z,4.10
2022-12-15T10:48:37.899Z,4.36
2022-12-15T10:51:47.153Z,4.22
2022-12-15T10:54:52.038Z,4.03
2022-12-15T10:58:03.090Z,3.76
2022-12-15T11:01:19.250Z,3.60
2022-12-15T11:04:32.592Z,4.11
2022-12-15T11:07:36.733Z,3.73
2022-12-15T11:11:08.933Z,4.00
2022-12-15T11:14:24.187Z,3.89
2022-12-15T11:17:40.473Z,4.09
2022-12-15T11:21:11.592Z,4.08
2022-12-15T11:24:20.273Z,3.83
2022-12-15T11:27:43.292Z,3.81
2022-12-15T11:30:54.140Z,4.11
2022-12-15T11:33:57.740Z,4.09
2022-12-15T11:37:34.023Z,3.82
2022-12-15T11:40:39.848Z,4.12
2022-12-15T11:44:18.482Z,4.20
2022-12-15T11:47:27.893Z,4.04
2022-12-15T11:50:51.104Z,3.97
2022-12-15T11:53:56.490Z,3.62
2022-12-15T11:57:09.784Z,3.73
2022-12-15T12:00:18.363Z,3.90
2022-12-15T12:03:48.868Z,3.74
2022-12-15T12:07:08.752Z,4.01
2022-12-15T12:10:29.537Z,3.97
2022-12-15T12:13:44.197Z,3.91
2022-12-15T12:17:03.608Z,4.34
2022-12-15T12:20:38.787Z,3.83
2022-12-15T12:23:47.225Z,4.05
2022-12-15T12:26:58.725Z,3.69
2022-12-15T12:30:18.130Z,4.03
2022-12-15T12:33:36.822Z,3.83
2022-12-15T12:36:42.107Z,4.12
2022-12-15T12:39:46.953Z,3.98
2022-12-15T12:42:57.431Z,3.77
2022-12-15T12:46:13.986Z,3.98
2022-12-15T12:49:26.803Z,3.91
2022-12-15T12:52:38.015Z,3.73
2022-12-15T12:55:43.742Z,3.92
2022-12-15T12:58:48.568Z,4.04
2022-12-15T13:01:53.003Z,3.77
2022-12-15T13:05:00.085Z,3.99
2022-12-15T13:08:06.308Z,3.99
2022-12-15T13:11:58.383Z,3.96
2022-12-15T13:15:10.918Z,3.94
2022-12-15T13:18:17.725Z,4.00
2022-12-15T13:21:51.259Z,4.02
2022-12-15T13:24:56.387Z,3.89
2022-12-15T13:28:01.142Z,3.83
2022-12-15T13:31:27.893Z,3.97
2022-12-15T13:34:38.934Z,4.05
2022-12-15T13:37:46.748Z,4.07
2022-12-15T13:40:54.019Z,3.81
2022-12-15T13:43:58.528Z,3.91
2022-12-15T13:47:19.689Z,4.03
2022-12-15T13:50:38.570Z,3.74
2022-12-15T13:53:51.458Z,3.63
2022-12-15T13:57:15.075Z,3.74
2022-12-15T14:00:21.139Z,3.56
2022-12-15T14:03:24.757Z,3.45
2022-12-15T14:06:36.255Z,3.40
2022-12-15T14:09:42.085Z,3.44
2022-12-15T14:12:45.946Z,3.38
2022-12-15T14:16:16.655Z,3.39
2022-12-15T14:19:19.258Z,3.48
2022-12-15T14:22:28.241Z,3.51
2022-12-15T14:25:31.219Z,3.38
2022-12-15T14:28:39.778Z,3.62
2022-12-15T14:31:46.947Z,3.83
2022-12-15T14:34:51.069Z,3.83
2022-12-15T14:37:57.280Z,3.68
2022-12-15T14:41:03.446Z,3.63
2022-12-15T14:44:37.041Z,3.48
2022-12-15T14:47:40.520Z,3.63
2022-12-15T14:50:47.354Z,3.75
2022-12-15T14:57:20.186Z,3.25
2022-12-15T15:00:35.674Z,3.18
2022-12-15T15:03:40.888Z,3.16
2022-12-15T15:06:47.707Z,3.33
2022-12-15T15:09:53.168Z,3.45
2022-12-15T15:12:58.487Z,3.21
2022-12-15T15:16:06.297Z,3.22
2022-12-15T15:19:19.462Z,3.35
2022-12-15T15:22:40.915Z,3.27
2022-12-15T15:25:56.584Z,3.63
2022-12-15T15:28:59.013Z,3.65
2022-12-15T15:32:16.866Z,3.75
2022-12-15T15:35:20.041Z,3.77
2022-12-15T15:38:28.874Z,3.74
2022-12-15T15:41:33.001Z,3.72
2022-12-15T15:44:35.874Z,3.53
2022-12-15T15:47:38.009Z,3.42
2022-12-15T15:50:40.740Z,3.33
2022-12-15T15:53:43.077Z,3.24
2022-12-15T15:56:45.629Z,3.40
2022-12-15T15:59:47.807Z,3.41
2022-12-15T16:02:51.162Z,3.49
2022-12-15T16:05:53.785Z,3.45
2022-12-15T16:08:58.309Z,3.51
2022-12-15T16:12:00.809Z,3.50
2022-12-15T16:15:06.127Z,3.60
2022-12-15T16:18:08.812Z,3.41
2022-12-15T16:21:16.697Z,3.60
2022-12-15T16:24:19.506Z,3.37
2022-12-15T16:27:22.311Z,3.32
2022-12-15T16:30:26.557Z,3.37
2022-12-15T16:33:28.877Z,3.30
2022-12-15T16:36:32.565Z,3.21
2022-12-15T16:39:35.456Z,3.14
2022-12-15T16:42:38.132Z,3.15
2022-12-15T16:45:44.685Z,3.15
2022-12-15T16:48:47.339Z,3.21
2022-12-15T16:51:52.424Z,3.14
2022-12-15T16:54:54.955Z,3.15
2022-12-15T16:58:05.433Z,3.03
2022-12-15T17:01:10.364Z,3.04
2022-12-15T17:04:14.164Z,3.16
2022-12-15T17:07:20.445Z,3.34
2022-12-15T17:10:26.385Z,3.30
2022-12-15T17:13:39.056Z,3.30
2022-12-15T17:16:44.146Z,3.12
2022-12-15T17:23:16.011Z,2.92
2022-12-15T17:26:29.052Z,2.99
2022-12-15T17:29:33.184Z,2.96
2022-12-15T17:32:35.636Z,2.89
2022-12-15T17:35:37.750Z,2.95
2022-12-15T17:38:40.429Z,2.96
2022-12-15T17:41:59.262Z,2.92
2022-12-15T17:45:06.551Z,3.06
2022-12-15T17:48:09.018Z,3.05
2022-12-15T17:51:16.575Z,3.07
2022-12-15T17:54:19.675Z,3.17
2022-12-15T17:57:22.089Z,3.28
2022-12-15T18:00:27.630Z,3.14
2022-12-15T18:03:31.231Z,3.04
2022-12-15T18:06:33.708Z,3.02
2022-12-15T18:09:36.122Z,3.08
2022-12-15T18:12:38.482Z,3.23
2022-12-15T18:15:41.028Z,3.21
2022-12-15T18:18:43.277Z,3.20
2022-12-15T18:21:45.841Z,3.12
2022-12-15T18:24:49.641Z,3.14
2022-12-15T18:27:53.869Z,3.15
2022-12-15T18:31:02.961Z,3.10
2022-12-15T18:34:12.625Z,2.99
2022-12-15T18:37:19.543Z,2.86
2022-12-15T18:40:27.122Z,3.14
2022-12-15T18:43:34.781Z,3.09
2022-12-15T18:46:37.510Z,3.13
2022-12-15T18:49:39.664Z,3.15
2022-12-15T18:52:42.555Z,3.14
2022-12-15T18:55:46.529Z,3.16
2022-12-15T18:58:48.943Z,2.97
2022-12-15T19:01:51.165Z,2.91
2022-12-15T19:04:53.716Z,2.68
2022-12-15T19:08:09.983Z,2.63
2022-12-15T19:11:18.348Z,2.49
2022-12-15T19:14:39.399Z,2.47
2022-12-15T19:18:00.539Z,2.45
2022-12-15T19:21:48.053Z,2.50
2022-12-15T19:24:56.114Z,2.57
2022-12-15T19:28:00.245Z,2.75
2022-12-15T19:31:02.941Z,2.82
2022-12-15T19:34:05.156Z,2.90
2022-12-15T19:37:15.917Z,2.80
2022-12-15T19:40:25.028Z,2.84
2022-12-15T19:43:27.661Z,2.75
2022-12-15T19:46:29.762Z,2.82
2022-12-15T19:49:32.258Z,2.76
2022-12-15T19:52:34.442Z,2.85
2022-12-15T19:55:36.965Z,2.70
2022-12-15T19:58:39.481Z,2.63
2022-12-15T20:01:42.113Z,2.57
2022-12-15T20:04:45.490Z,2.45
2022-12-15T20:07:49.063Z,2.40
2022-12-15T20:10:53.920Z,2.27
2022-12-15T20:13:56.889Z,2.23
2022-12-15T20:16:59.326Z,2.09
2022-12-15T20:20:01.636Z,2.05
2022-12-15T20:23:14.325Z,1.88
2022-12-15T20:26:17.262Z,1.98
2022-12-15T20:29:25.990Z,2.10
2022-12-15T20:32:28.146Z,2.19
2022-12-15T20:35:33.213Z,2.38
2022-12-15T20:38:36.061Z,2.42
2022-12-15T20:41:38.727Z,2.45
2022-12-15T20:44:41.280Z,2.30
2022-12-15T20:47:46.283Z,2.40
2022-12-15T20:50:49.342Z,2.35
2022-12-15T20:53:53.569Z,2.27
2022-12-15T20:56:57.878Z,2.28
2022-12-15T21:00:00.323Z,2.16
2022-12-15T21:03:02.916Z,2.25
2022-12-15T21:06:07.650Z,2.31
2022-12-15T21:09:13.240Z,2.24
2022-12-15T21:12:18.478Z,2.35
2022-12-15T21:15:23.192Z,2.31
2022-12-15T21:19:17.997Z,2.45
2022-12-15T21:21:52.060Z,2.57
2022-12-15T21:24:57.445Z,2.67
2022-12-15T21:27:59.684Z,2.47
2022-12-15T21:31:02.234Z,2.56
2022-12-15T21:34:04.453Z,2.66
2022-12-15T21:37:22.617Z,2.62
2022-12-15T21:40:28.540Z,2.62
2022-12-15T21:43:33.556Z,2.57
2022-12-15T21:46:35.697Z,2.61
2022-12-15T21:49:38.169Z,2.55
2022-12-15T21:52:40.744Z,2.48
2022-12-15T21:55:46.235Z,2.38
2022-12-15T21:58:52.712Z,2.37
2022-12-15T22:02:00.277Z,2.30
2022-12-15T22:05:03.033Z,2.41
2022-12-15T22:08:17.386Z,2.26
2022-12-15T22:11:25.943Z,2.31
2022-12-15T22:14:32.048Z,2.33
2022-12-15T22:17:34.489Z,2.40
2022-12-15T22:20:37.598Z,2.49
2022-12-15T22:23:40.216Z,2.51
2022-12-15T22:26:43.053Z,2.52
2022-12-15T22:29:46.233Z,2.48
2022-12-15T22:32:48.933Z,2.41
2022-12-15T22:35:53.312Z,2.46
2022-12-15T22:38:57.069Z,2.64
2022-12-15T22:42:01.005Z,2.52
2022-12-15T22:45:04.645Z,2.56
2022-12-15T22:48:07.137Z,2.53
2022-12-15T22:51:12.994Z,2.38
2022-12-15T22:54:20.883Z,2.42
2022-12-15T22:57:26.293Z,2.57
2022-12-15T23:00:28.694Z,2.59
2022-12-15T23:03:31.289Z,2.53
2022-12-15T23:06:34.085Z,2.52
2022-12-15T23:09:36.331Z,2.48
2022-12-15T23:12:38.762Z,2.43
2022-12-15T23:15:59.670Z,2.56
2022-12-15T23:19:02.225Z,2.59
2022-12-15T23:22:04.291Z,2.42
2022-12-15T23:25:07.432Z,2.39
2022-12-15T23:28:10.333Z,2.36
2022-12-15T23:31:12.815Z,2.30
2022-12-15T23:34:15.331Z,2.30
2022-12-15T23:37:17.870Z,2.35
2022-12-15T23:40:21.995Z,2.33
2022-12-15T23:43:26.804Z,2.31
2022-12-15T23:46:29.123Z,2.34
2022-12-15T23:49:31.650Z,2.31
2022-12-15T23:52:33.807Z,2.48
2022-12-15T23:55:36.787Z,2.49
2022-12-15T23:58:40.883Z,2.51
